MDPP/POP METAR and TAF weather

Enter ICAO airport designator
Station Type Date Time Source
MDPP METAR 2019/02/17 15:00 UTC NOAA

MDPP 171500Z 10010KT 9999 FEW022 29/24 Q1018 NOSIG


Station Type Date Time Source
MDPP Decoded METAR 2019/02/17 15:00 UTC NOAA

Puerto Plata International, Dominican Republic (MDPP) 19-45N 070-33W
Feb 17, 2019 - 10:00 AM EST / 2019.02.17 1500 UTC
Wind: from the E (100 degrees) at 12 MPH (10 KT):0
Visibility: greater than 7 mile(s):0
Sky conditions: mostly clear
Temperature: 84 F (29 C)
Dew Point: 75 F (24 C)
Relative Humidity: 74%
Pressure (altimeter): 30.06 in. Hg (1018 hPa)
ob: MDPP 171500Z 10010KT 9999 FEW022 29/24 Q1018 NOSIG
cycle: 15

Station Type Date Time Source
MDPP TAF 2019/02/17 12:06 UTC NOAA

TAF MDPP 171000Z 1712/1812 00000KT 9999 FEW016
BECMG 1713/1715 09008KT


Example: see airport list